Terminal Aerodrome Forecast
Issued by NWS Louisville, KY

Home | Current Version | Previous Version | Text Only | Print | Product List | Glossary On
Versions: 1 2 3 4 5 6 7 8 9 10 11 12 13 14 15 16 17 18 19 20 21
000
FTUS43 KLMK 261700
TAFLEX
TAF
KLEX 261722Z 2618/2718 19016G25KT 5SM -SHRA VCTS SCT025 BKN035CB
      TEMPO 2618/2622 3SM -TSRA BKN025CB
     FM270000 20012KT P6SM BKN040
     FM270800 21007KT P6SM BKN025
     FM271500 22010KT P6SM BKN035=

USA.gov is the U.S. government's official web portal to all federal, state and local government web resources and services.